logo
Search for airport 
image banner adimage banner adimage banner ad
image banner ad

LSYN - Langgletscher

Located in , Switzerland

ICAO - , IATA -

Data provided by Airmate  

General information

Coordinates: N46°27'13" E7°55'22"
Elevation is 7729 feet MSL.
 
View others Airports in Berne

Operational data

Special qualification required
Current time UTC:
Current local time:
Weather at : LSMM - Meiringen ( 35 km )
METAR: LSMM 141620Z AUTO 00000KT 9999NDV FEW090 BKN150 23/16 Q1015 RMK
View NOTAMs / SUP AIP / TFR affecting this airport [VIEW]
Communications frequencies: [VIEW]

Runways:

Airport contact information

Address: Switzerland

Satellite view of LSYN